臺北終端管制區 - 桃園五邊雷達席

METAR RCTP 311000Z 24009KT 9999 FEW015 BKN019 29/26 Q1010 NOSIG RMK A2984=

站台狀態:Offline
最後更新:2020-05-31 18:30:01